Time;durP1;ratioP1;P1;durP2;ratioP2;P2;SDS_P1;SDS_P2;PMS_P1;PMS_P2;Temp;Humidity;BMP_temperature;BMP_pressure;BME280_temperature;BME280_humidity;BME280_pressure;Samples;Min_cycle;Max_cycle;Signal;HPM_P1;HPM_P2
2023/03/21 00:04:32;;;;;;;11.05;8.25;;;;;;;;;;10330561;28;20314;-78
2023/03/21 00:09:33;;;;;;;10.23;6.70;;;;;;;;;;10309252;28;20855;-79
2023/03/21 00:14:36;;;;;;;10.73;7.20;;;;;;;;;;10313924;28;20216;-79
2023/03/21 00:19:38;;;;;;;14.60;7.53;;;;;;;;;;10305711;28;20254;-79
2023/03/21 00:24:39;;;;;;;9.27;6.72;;;;;;;;;;10317680;28;20334;-79
2023/03/21 00:29:40;;;;;;;8.85;6.93;;;;;;;;;;10301271;28;20306;-81
2023/03/21 00:34:42;;;;;;;8.02;6.25;;;;;;;;;;10326442;28;20231;-79
2023/03/21 00:39:46;;;;;;;8.63;6.68;;;;;;;;;;10332069;28;20225;-80
2023/03/21 00:44:47;;;;;;;9.93;6.35;;;;;;;;;;10313827;28;20993;-79
2023/03/21 00:49:48;;;;;;;10.07;6.68;;;;;;;;;;10329446;28;20238;-78
2023/03/21 00:54:49;;;;;;;13.43;6.50;;;;;;;;;;10323608;28;20223;-79
2023/03/21 00:59:50;;;;;;;10.70;6.28;;;;;;;;;;10321545;28;20244;-78
2023/03/21 01:04:53;;;;;;;8.43;6.40;;;;;;;;;;10313157;28;20216;-81
2023/03/21 01:09:54;;;;;;;7.72;6.15;;;;;;;;;;10291113;28;20220;-80
2023/03/21 01:14:56;;;;;;;7.30;6.63;;;;;;;;;;10317492;28;20263;-80
2023/03/21 01:19:57;;;;;;;6.05;5.55;;;;;;;;;;10331684;28;20213;-79
2023/03/21 01:24:58;;;;;;;6.40;5.80;;;;;;;;;;10305482;28;20263;-80
2023/03/21 01:29:59;;;;;;;5.95;5.40;;;;;;;;;;10326296;28;20216;-79
2023/03/21 01:35:00;;;;;;;6.55;5.70;;;;;;;;;;10327000;28;20212;-81
2023/03/21 01:40:03;;;;;;;8.38;6.07;;;;;;;;;;10314363;28;20281;-78
2023/03/21 01:45:07;;;;;;;8.90;6.35;;;;;;;;;;10313785;28;20224;-78
2023/03/21 01:50:14;;;;;;;7.63;5.65;;;;;;;;;;10318966;28;20604;-77
2023/03/21 01:55:22;;;;;;;6.50;5.82;;;;;;;;;;10304068;28;20648;-78
2023/03/21 02:00:32;;;;;;;7.68;6.57;;;;;;;;;;10312831;28;20283;-79
2023/03/21 02:05:52;;;;;;;6.35;5.75;;;;;;;;;;10325658;28;20266;-79
2023/03/21 02:10:55;;;;;;;7.68;6.22;;;;;;;;;;10342009;28;20362;-80
2023/03/21 02:16:14;;;;;;;6.35;5.72;;;;;;;;;;10317083;28;20278;-79
2023/03/21 02:21:29;;;;;;;9.60;7.05;;;;;;;;;;10301462;28;20563;-79
2023/03/21 02:26:45;;;;;;;7.00;5.75;;;;;;;;;;10313891;28;20554;-79
2023/03/21 02:32:12;;;;;;;7.45;5.80;;;;;;;;;;10302803;28;20935;-77
2023/03/21 02:37:25;;;;;;;9.27;6.35;;;;;;;;;;10333507;28;20258;-78
2023/03/21 02:42:27;;;;;;;9.02;7.32;;;;;;;;;;10316613;28;20297;-80
2023/03/21 02:47:36;;;;;;;7.40;6.10;;;;;;;;;;10322717;28;20735;-79
2023/03/21 02:52:40;;;;;;;11.20;6.60;;;;;;;;;;10309946;28;20278;-79
2023/03/21 02:57:45;;;;;;;9.70;6.20;;;;;;;;;;10293776;28;20770;-79
2023/03/21 03:02:49;;;;;;;8.40;6.20;;;;;;;;;;10328841;28;20233;-79
2023/03/21 03:08:00;;;;;;;11.73;5.82;;;;;;;;;;10319758;28;20299;-78
2023/03/21 03:13:20;;;;;;;7.50;6.18;;;;;;;;;;10324796;28;20311;-79
2023/03/21 03:18:42;;;;;;;8.10;5.97;;;;;;;;;;10320670;28;20628;-79
2023/03/21 03:23:44;;;;;;;8.25;6.18;;;;;;;;;;10328028;28;20622;-79
2023/03/21 03:28:50;;;;;;;9.25;6.68;;;;;;;;;;10334238;28;20757;-78
2023/03/21 03:33:53;;;;;;;9.02;6.45;;;;;;;;;;10308486;28;20703;-78
2023/03/21 03:38:56;;;;;;;14.50;7.20;;;;;;;;;;10297500;28;20216;-80
2023/03/21 03:43:59;;;;;;;12.23;7.13;;;;;;;;;;10315264;28;20216;-78
2023/03/21 03:49:10;;;;;;;10.10;6.53;;;;;;;;;;10321254;28;20211;-79
2023/03/21 03:54:18;;;;;;;10.18;7.40;;;;;;;;;;10308731;28;20231;-79
2023/03/21 03:59:23;;;;;;;10.10;6.80;;;;;;;;;;10313548;28;20259;-81
2023/03/21 04:04:40;;;;;;;9.57;6.75;;;;;;;;;;10293807;28;20254;-80
2023/03/21 04:09:42;;;;;;;9.23;7.10;;;;;;;;;;10301709;28;20230;-79
2023/03/21 04:14:43;;;;;;;7.65;6.03;;;;;;;;;;10331452;28;20224;-78
2023/03/21 04:19:45;;;;;;;11.57;6.82;;;;;;;;;;10314063;28;20625;-78
2023/03/21 04:24:47;;;;;;;16.63;7.20;;;;;;;;;;10331431;28;20256;-79
2023/03/21 04:29:48;;;;;;;11.00;7.30;;;;;;;;;;10300478;28;20234;-79
2023/03/21 04:35:03;;;;;;;11.82;7.35;;;;;;;;;;10298159;28;20686;-79
2023/03/21 04:40:06;;;;;;;9.43;6.53;;;;;;;;;;10327338;28;20863;-80
2023/03/21 04:45:07;;;;;;;12.88;7.63;;;;;;;;;;10319396;28;20217;-80
2023/03/21 04:50:09;;;;;;;11.88;7.68;;;;;;;;;;10304495;28;20610;-79
2023/03/21 04:55:10;;;;;;;10.77;7.22;;;;;;;;;;10313012;28;20248;-79
2023/03/21 05:00:13;;;;;;;8.75;6.50;;;;;;;;;;10332836;28;20304;-79
2023/03/21 05:05:15;;;;;;;10.65;6.82;;;;;;;;;;10291394;28;20275;-80
2023/03/21 05:10:16;;;;;;;11.23;6.95;;;;;;;;;;10311171;28;20197;-76
2023/03/21 05:15:17;;;;;;;10.25;7.15;;;;;;;;;;10314446;28;20215;-80
2023/03/21 05:20:18;;;;;;;12.20;7.32;;;;;;;;;;10309656;28;20195;-78
2023/03/21 05:25:32;;;;;;;11.48;6.97;;;;;;;;;;10300785;28;20818;-79
2023/03/21 05:30:41;;;;;;;11.82;7.30;;;;;;;;;;10292149;28;20694;-79
2023/03/21 05:35:42;;;;;;;12.15;7.50;;;;;;;;;;10310195;28;20445;-78
2023/03/21 05:40:46;;;;;;;15.93;7.45;;;;;;;;;;10279972;28;20219;-79
2023/03/21 05:45:48;;;;;;;13.55;7.22;;;;;;;;;;10304029;28;20721;-77
2023/03/21 05:50:50;;;;;;;11.98;6.75;;;;;;;;;;10293950;28;20303;-77
2023/03/21 05:55:53;;;;;;;8.73;6.38;;;;;;;;;;10301027;28;20326;-75
2023/03/21 06:01:12;;;;;;;8.68;6.10;;;;;;;;;;10285707;28;20230;-79
2023/03/21 06:06:18;;;;;;;8.75;6.28;;;;;;;;;;10292734;28;20382;-78
2023/03/21 06:11:31;;;;;;;7.85;6.00;;;;;;;;;;10324408;28;20229;-80
2023/03/21 06:16:49;;;;;;;11.25;6.70;;;;;;;;;;10290845;28;20665;-80
2023/03/21 06:21:51;;;;;;;7.82;6.18;;;;;;;;;;10286900;28;20828;-78
2023/03/21 06:26:52;;;;;;;9.77;6.90;;;;;;;;;;10331150;28;20219;-80
2023/03/21 06:31:53;;;;;;;8.65;5.88;;;;;;;;;;10299028;28;20711;-81
2023/03/21 06:36:55;;;;;;;12.93;5.95;;;;;;;;;;10301171;28;20276;-79
2023/03/21 06:42:02;;;;;;;8.15;6.03;;;;;;;;;;10303289;28;20589;-80
2023/03/21 06:47:03;;;;;;;10.00;6.20;;;;;;;;;;10298742;28;20220;-78
2023/03/21 06:52:04;;;;;;;8.10;5.10;;;;;;;;;;10312292;28;20874;-76
2023/03/21 06:57:05;;;;;;;5.43;4.82;;;;;;;;;;10290106;28;20285;-78
2023/03/21 07:02:12;;;;;;;6.18;4.53;;;;;;;;;;10323405;28;20274;-78
2023/03/21 07:07:19;;;;;;;5.15;4.45;;;;;;;;;;10311964;28;20350;-79
2023/03/21 07:12:22;;;;;;;6.70;4.57;;;;;;;;;;10325783;28;20231;-79
2023/03/21 07:17:38;;;;;;;5.82;3.92;;;;;;;;;;10299492;28;20318;-79
2023/03/21 07:22:39;;;;;;;5.40;4.85;;;;;;;;;;10313645;28;20258;-83
2023/03/21 07:27:41;;;;;;;5.07;4.57;;;;;;;;;;10316775;28;20482;-80
2023/03/21 07:32:44;;;;;;;5.60;4.53;;;;;;;;;;10296356;28;20216;-81
2023/03/21 07:37:45;;;;;;;5.82;4.50;;;;;;;;;;10308779;28;20291;-79
2023/03/21 07:42:50;;;;;;;7.75;3.85;;;;;;;;;;10332702;28;20225;-81
2023/03/21 07:48:02;;;;;;;4.88;4.05;;;;;;;;;;10312601;28;20217;-80
2023/03/21 07:53:08;;;;;;;4.95;3.85;;;;;;;;;;10314304;28;20225;-84
2023/03/21 07:58:09;;;;;;;3.92;3.65;;;;;;;;;;10336644;28;20224;-82
2023/03/21 08:03:10;;;;;;;4.03;3.72;;;;;;;;;;10311496;28;20684;-80
2023/03/21 08:08:12;;;;;;;3.45;3.28;;;;;;;;;;10308064;28;20273;-81
2023/03/21 08:13:13;;;;;;;4.10;3.85;;;;;;;;;;10309504;28;20267;-80
2023/03/21 08:18:14;;;;;;;3.92;3.22;;;;;;;;;;10328482;28;20327;-82
2023/03/21 08:23:15;;;;;;;4.10;3.10;;;;;;;;;;10313359;28;20220;-80
2023/03/21 08:28:16;;;;;;;4.03;3.72;;;;;;;;;;10301310;28;20598;-80
2023/03/21 08:33:17;;;;;;;3.65;3.35;;;;;;;;;;10323456;28;20223;-80
2023/03/21 08:38:18;;;;;;;4.78;3.95;;;;;;;;;;10334999;28;20251;-80
2023/03/21 08:43:19;;;;;;;4.82;4.45;;;;;;;;;;10332625;28;20220;-79
2023/03/21 08:48:20;;;;;;;4.47;4.10;;;;;;;;;;10332067;28;20259;-81
2023/03/21 08:53:21;;;;;;;3.88;3.42;;;;;;;;;;10316999;28;20300;-79
2023/03/21 08:58:22;;;;;;;5.75;3.97;;;;;;;;;;10318517;28;20660;-79
2023/03/21 09:03:26;;;;;;;4.00;3.70;;;;;;;;;;10311676;28;20750;-81
2023/03/21 09:08:27;;;;;;;7.53;4.60;;;;;;;;;;10310105;28;20225;-81
2023/03/21 09:13:28;;;;;;;4.78;4.20;;;;;;;;;;10326313;28;20226;-82
2023/03/21 09:18:44;;;;;;;3.97;3.67;;;;;;;;;;10310522;28;20585;-80
2023/03/21 09:23:45;;;;;;;7.78;4.35;;;;;;;;;;10326557;28;20227;-80
2023/03/21 09:28:47;;;;;;;4.10;3.55;;;;;;;;;;10303589;28;20251;-82
2023/03/21 09:33:50;;;;;;;8.07;4.10;;;;;;;;;;10312627;28;20233;-80
2023/03/21 09:38:51;;;;;;;4.20;3.80;;;;;;;;;;10329649;28;20768;-79
2023/03/21 09:44:07;;;;;;;6.30;4.43;;;;;;;;;;10311293;28;20275;-78
2023/03/21 09:49:14;;;;;;;4.07;3.45;;;;;;;;;;10312097;28;20224;-79
2023/03/21 09:54:19;;;;;;;3.90;3.45;;;;;;;;;;10310721;28;20221;-80
2023/03/21 09:59:22;;;;;;;4.95;4.00;;;;;;;;;;10292783;28;20219;-79
2023/03/21 10:04:23;;;;;;;4.97;3.70;;;;;;;;;;10305142;28;20291;-79
2023/03/21 10:09:27;;;;;;;4.43;3.83;;;;;;;;;;10292045;28;20887;-78
2023/03/21 10:14:30;;;;;;;4.68;4.38;;;;;;;;;;10313445;28;20235;-80
2023/03/21 10:19:31;;;;;;;6.95;3.95;;;;;;;;;;10331122;28;20239;-81
2023/03/21 10:24:33;;;;;;;7.47;3.83;;;;;;;;;;10318060;28;20230;-78
2023/03/21 10:29:42;;;;;;;5.30;4.15;;;;;;;;;;10339949;28;20228;-79
2023/03/21 10:34:50;;;;;;;5.20;4.13;;;;;;;;;;10322607;28;20217;-79
2023/03/21 10:39:52;;;;;;;3.80;3.03;;;;;;;;;;10333675;28;21785;-83
2023/03/21 10:44:55;;;;;;;3.88;3.53;;;;;;;;;;10321103;28;20234;-82
2023/03/21 10:50:01;;;;;;;7.38;3.45;;;;;;;;;;10326700;28;20381;-79
2023/03/21 10:55:08;;;;;;;3.67;3.38;;;;;;;;;;10302624;28;20252;-80
2023/03/21 11:00:15;;;;;;;3.45;3.17;;;;;;;;;;10332046;28;20572;-79
2023/03/21 11:05:19;;;;;;;3.55;3.28;;;;;;;;;;10320152;28;20565;-79
2023/03/21 11:10:31;;;;;;;3.92;3.40;;;;;;;;;;10320883;28;20521;-76
2023/03/21 11:15:41;;;;;;;2.90;2.70;;;;;;;;;;10329233;28;20232;-79
2023/03/21 11:20:47;;;;;;;3.22;3.03;;;;;;;;;;10317579;28;20630;-80
2023/03/21 11:25:50;;;;;;;5.57;3.63;;;;;;;;;;10325238;28;20247;-79
2023/03/21 11:30:55;;;;;;;3.72;3.42;;;;;;;;;;10314039;28;20286;-79
2023/03/21 11:36:05;;;;;;;2.65;2.55;;;;;;;;;;10333642;28;20312;-78
2023/03/21 11:41:06;;;;;;;2.85;2.20;;;;;;;;;;10316347;28;20329;-81
2023/03/21 11:46:09;;;;;;;2.63;2.42;;;;;;;;;;10316844;28;20695;-79
2023/03/21 11:51:19;;;;;;;3.28;3.08;;;;;;;;;;10314928;28;21090;-78
2023/03/21 11:56:26;;;;;;;2.83;2.72;;;;;;;;;;10332171;28;20606;-81
2023/03/21 12:01:32;;;;;;;2.42;2.33;;;;;;;;;;10328893;28;20625;-80
2023/03/21 12:06:37;;;;;;;3.42;2.90;;;;;;;;;;10317113;28;20212;-79
2023/03/21 12:11:38;;;;;;;2.50;2.40;;;;;;;;;;10342298;28;20704;-81
2023/03/21 12:16:42;;;;;;;3.00;2.72;;;;;;;;;;10315256;28;20232;-82
2023/03/21 12:22:06;;;;;;;2.80;2.60;;;;;;;;;;10309635;28;20298;-79
2023/03/21 12:27:15;;;;;;;3.85;2.80;;;;;;;;;;10337708;28;20212;-79
2023/03/21 12:32:29;;;;;;;2.67;2.58;;;;;;;;;;10315967;28;20248;-79
2023/03/21 12:37:36;;;;;;;2.88;2.60;;;;;;;;;;10314530;28;20681;-78
2023/03/21 12:42:51;;;;;;;2.30;2.20;;;;;;;;;;10324759;28;20236;-80
2023/03/21 12:47:58;;;;;;;2.47;2.30;;;;;;;;;;10323944;28;20272;-80
2023/03/21 12:53:02;;;;;;;2.13;2.03;;;;;;;;;;10328496;28;20747;-81
2023/03/21 12:58:11;;;;;;;2.33;2.28;;;;;;;;;;10345775;28;20262;-80
2023/03/21 13:03:13;;;;;;;2.70;2.60;;;;;;;;;;10342789;28;20315;-79
2023/03/21 13:08:22;;;;;;;2.92;2.78;;;;;;;;;;10312270;28;20220;-80
2023/03/21 13:13:30;;;;;;;3.05;2.53;;;;;;;;;;10338244;28;20238;-80
2023/03/21 13:18:31;;;;;;;2.75;2.55;;;;;;;;;;10310785;28;20587;-80
2023/03/21 13:23:36;;;;;;;3.10;2.90;;;;;;;;;;10338317;28;20256;-81
2023/03/21 13:28:39;;;;;;;2.63;2.50;;;;;;;;;;10310056;28;20225;-79
2023/03/21 13:33:43;;;;;;;2.58;2.38;;;;;;;;;;10334451;28;20220;-77
2023/03/21 13:38:49;;;;;;;3.20;3.10;;;;;;;;;;10316745;28;20220;-81
2023/03/21 13:43:52;;;;;;;2.92;2.40;;;;;;;;;;10302226;28;20225;-79
2023/03/21 13:48:56;;;;;;;2.97;2.70;;;;;;;;;;10313511;28;20221;-79
2023/03/21 13:54:21;;;;;;;3.42;3.13;;;;;;;;;;10311680;28;20231;-80
2023/03/21 13:59:37;;;;;;;7.60;3.25;;;;;;;;;;10316343;28;20408;-81
2023/03/21 14:04:39;;;;;;;2.47;2.38;;;;;;;;;;10305604;28;20282;-79
2023/03/21 14:09:55;;;;;;;3.03;2.83;;;;;;;;;;10312564;28;20223;-80
2023/03/21 14:15:02;;;;;;;3.05;2.90;;;;;;;;;;10329406;28;20638;-80
2023/03/21 14:20:15;;;;;;;3.60;3.20;;;;;;;;;;10334771;28;20279;-80
2023/03/21 14:25:18;;;;;;;3.88;3.33;;;;;;;;;;10319169;28;20797;-80
2023/03/21 14:30:24;;;;;;;3.83;3.63;;;;;;;;;;10330114;28;20212;-78
2023/03/21 14:35:30;;;;;;;5.72;4.97;;;;;;;;;;10332190;28;20274;-77
2023/03/21 14:40:31;;;;;;;5.80;5.22;;;;;;;;;;10333285;28;20426;-78
2023/03/21 14:45:34;;;;;;;5.03;4.72;;;;;;;;;;10329823;28;20220;-79
2023/03/21 14:50:52;;;;;;;5.40;4.10;;;;;;;;;;10314121;28;20811;-80
2023/03/21 14:55:57;;;;;;;5.13;4.18;;;;;;;;;;10311024;28;20791;-77
2023/03/21 15:01:03;;;;;;;7.53;4.22;;;;;;;;;;10309686;28;20754;-80
2023/03/21 15:06:04;;;;;;;6.22;4.82;;;;;;;;;;10302957;28;20227;-80
2023/03/21 15:11:06;;;;;;;4.68;4.28;;;;;;;;;;10334492;28;20590;-80
2023/03/21 15:16:09;;;;;;;6.57;4.82;;;;;;;;;;10330755;28;20232;-80
2023/03/21 15:21:13;;;;;;;6.45;4.60;;;;;;;;;;10339357;28;20228;-79
2023/03/21 15:26:15;;;;;;;5.25;4.50;;;;;;;;;;10308875;28;20221;-79
2023/03/21 15:31:21;;;;;;;7.22;4.93;;;;;;;;;;10325867;28;20710;-80
2023/03/21 15:36:32;;;;;;;6.57;4.63;;;;;;;;;;10324596;28;20235;-82
2023/03/21 15:41:34;;;;;;;8.65;5.00;;;;;;;;;;10317283;28;20236;-79
2023/03/21 15:46:41;;;;;;;8.18;4.95;;;;;;;;;;10333186;28;20422;-79
2023/03/21 15:51:44;;;;;;;7.93;5.03;;;;;;;;;;10328901;28;20224;-83
2023/03/21 15:56:45;;;;;;;6.80;5.07;;;;;;;;;;10333580;28;20294;-81
2023/03/21 16:01:47;;;;;;;6.00;4.40;;;;;;;;;;10314344;28;20280;-79
2023/03/21 16:06:51;;;;;;;10.60;4.97;;;;;;;;;;10312847;28;20247;-81
2023/03/21 16:11:53;;;;;;;7.18;4.88;;;;;;;;;;10337690;28;20458;-79
2023/03/21 16:16:56;;;;;;;8.20;5.53;;;;;;;;;;10337250;28;21564;-79
2023/03/21 16:21:57;;;;;;;5.93;5.15;;;;;;;;;;10309806;28;20666;-80
2023/03/21 16:26:58;;;;;;;7.82;6.10;;;;;;;;;;10314213;28;20223;-80
2023/03/21 16:32:04;;;;;;;9.85;7.18;;;;;;;;;;10303434;28;21283;-80
2023/03/21 16:37:06;;;;;;;10.40;5.68;;;;;;;;;;10312508;28;20255;-81
2023/03/21 16:42:07;;;;;;;8.98;6.13;;;;;;;;;;10321031;28;20331;-80
2023/03/21 16:47:15;;;;;;;10.93;6.32;;;;;;;;;;10324740;28;20274;-80
2023/03/21 16:52:16;;;;;;;16.58;6.45;;;;;;;;;;10315637;28;20331;-82
2023/03/21 16:57:26;;;;;;;14.55;5.97;;;;;;;;;;10323834;28;20228;-82
2023/03/21 17:02:27;;;;;;;8.43;5.22;;;;;;;;;;10303955;28;20347;-82
2023/03/21 17:07:28;;;;;;;5.90;4.53;;;;;;;;;;10296914;28;20220;-83
2023/03/21 17:12:29;;;;;;;7.07;4.50;;;;;;;;;;10332095;28;20230;-85
2023/03/21 17:17:30;;;;;;;4.90;3.78;;;;;;;;;;10321360;28;20223;-84
2023/03/21 17:22:31;;;;;;;5.80;3.70;;;;;;;;;;10305130;28;20231;-85
2023/03/21 17:27:32;;;;;;;8.23;3.95;;;;;;;;;;10316275;28;20279;-83
2023/03/21 17:32:34;;;;;;;4.53;4.13;;;;;;;;;;10309105;28;20397;-84
2023/03/21 17:37:37;;;;;;;7.88;4.82;;;;;;;;;;10295639;28;20233;-82
2023/03/21 17:42:39;;;;;;;6.43;5.13;;;;;;;;;;10344698;28;20228;-85
2023/03/21 17:47:40;;;;;;;4.88;4.43;;;;;;;;;;10339710;28;20874;-85
2023/03/21 17:52:41;;;;;;;5.15;4.15;;;;;;;;;;10315334;28;20260;-83
2023/03/21 17:57:42;;;;;;;8.23;4.75;;;;;;;;;;10310265;28;20255;-81
2023/03/21 18:02:43;;;;;;;6.20;5.60;;;;;;;;;;10298577;28;20255;-84
2023/03/21 18:07:45;;;;;;;6.20;5.32;;;;;;;;;;10312384;28;20220;-84
2023/03/21 18:12:46;;;;;;;6.90;5.20;;;;;;;;;;10312503;28;20215;-84
2023/03/21 18:17:47;;;;;;;4.35;3.97;;;;;;;;;;10302365;28;20228;-84
2023/03/21 18:22:49;;;;;;;7.35;5.20;;;;;;;;;;10298683;28;20219;-84
2023/03/21 18:27:50;;;;;;;6.28;5.72;;;;;;;;;;10317530;28;20224;-85
2023/03/21 18:32:51;;;;;;;8.10;5.65;;;;;;;;;;10309796;28;20220;-83
2023/03/21 18:37:52;;;;;;;8.85;5.65;;;;;;;;;;10300681;28;20251;-84
2023/03/21 18:42:53;;;;;;;9.77;5.97;;;;;;;;;;10302068;28;20266;-83
2023/03/21 18:47:55;;;;;;;5.55;4.93;;;;;;;;;;10332865;28;20230;-85
2023/03/21 18:52:57;;;;;;;5.95;5.38;;;;;;;;;;10314869;28;20235;-84
2023/03/21 18:57:58;;;;;;;6.47;5.88;;;;;;;;;;10325159;28;20224;-83
2023/03/21 19:02:59;;;;;;;5.88;4.40;;;;;;;;;;10300631;28;20234;-84
2023/03/21 19:08:00;;;;;;;5.03;4.35;;;;;;;;;;10309818;28;20213;-84
2023/03/21 19:13:01;;;;;;;5.13;3.80;;;;;;;;;;10318093;28;20225;-84
2023/03/21 19:18:02;;;;;;;4.72;4.35;;;;;;;;;;10305533;28;20232;-83
2023/03/21 19:23:06;;;;;;;7.43;4.35;;;;;;;;;;10316459;28;20406;-85
2023/03/21 19:28:07;;;;;;;5.50;4.55;;;;;;;;;;10316879;28;20220;-84
2023/03/21 19:33:08;;;;;;;6.55;3.97;;;;;;;;;;10291605;28;20225;-84
2023/03/21 19:38:12;;;;;;;7.10;3.97;;;;;;;;;;10319025;28;20237;-84
2023/03/21 19:43:15;;;;;;;8.52;7.72;;;;;;;;;;10298949;28;20322;-84
2023/03/21 19:48:16;;;;;;;8.23;7.28;;;;;;;;;;10310201;28;20233;-84
2023/03/21 19:53:17;;;;;;;9.70;8.30;;;;;;;;;;10312413;28;20238;-86
2023/03/21 19:58:19;;;;;;;6.70;5.15;;;;;;;;;;10317952;28;20815;-84
2023/03/21 20:03:21;;;;;;;4.95;4.50;;;;;;;;;;10312385;28;20229;-83
2023/03/21 20:08:22;;;;;;;5.22;4.45;;;;;;;;;;10316952;28;20240;-84
2023/03/21 20:13:23;;;;;;;4.32;3.67;;;;;;;;;;10320346;28;20220;-84
2023/03/21 20:18:24;;;;;;;4.57;4.07;;;;;;;;;;10304703;28;20233;-85
2023/03/21 20:23:25;;;;;;;4.45;4.05;;;;;;;;;;10322844;28;20224;-84
2023/03/21 20:28:26;;;;;;;6.10;4.25;;;;;;;;;;10323602;28;20773;-85
2023/03/21 20:33:27;;;;;;;5.50;5.00;;;;;;;;;;10311398;28;20308;-85
2023/03/21 20:38:29;;;;;;;5.82;4.25;;;;;;;;;;10332064;28;20242;-84
2023/03/21 20:43:32;;;;;;;5.20;4.80;;;;;;;;;;10325708;28;20228;-85
2023/03/21 20:48:34;;;;;;;6.00;5.38;;;;;;;;;;10304758;28;20217;-85
2023/03/21 20:53:35;;;;;;;13.25;10.60;;;;;;;;;;10321455;28;20220;-85
2023/03/21 20:58:38;;;;;;;7.88;7.18;;;;;;;;;;10316618;28;20223;-83
2023/03/21 21:03:40;;;;;;;6.47;5.88;;;;;;;;;;10303195;28;20225;-84
2023/03/21 21:08:41;;;;;;;6.47;5.88;;;;;;;;;;10303715;28;20216;-83
2023/03/21 21:13:42;;;;;;;9.30;5.32;;;;;;;;;;10297112;28;20250;-82
2023/03/21 21:18:43;;;;;;;4.50;4.10;;;;;;;;;;10311593;28;21082;-83
2023/03/21 21:23:45;;;;;;;4.78;4.35;;;;;;;;;;10290645;28;20212;-84
2023/03/21 21:28:46;;;;;;;5.43;4.50;;;;;;;;;;10293545;28;20582;-83
2023/03/21 21:33:48;;;;;;;4.43;4.13;;;;;;;;;;10294320;28;20242;-81
2023/03/21 21:38:51;;;;;;;5.47;4.75;;;;;;;;;;10304084;28;20883;-81
2023/03/21 21:43:52;;;;;;;7.45;5.97;;;;;;;;;;10297705;28;20243;-81
2023/03/21 21:48:53;;;;;;;7.85;6.90;;;;;;;;;;10313579;28;20211;-81
2023/03/21 21:53:55;;;;;;;11.20;6.47;;;;;;;;;;10319747;28;20239;-79
2023/03/21 21:59:00;;;;;;;6.88;5.50;;;;;;;;;;10319297;28;20220;-80
2023/03/21 22:04:04;;;;;;;6.20;5.53;;;;;;;;;;10297131;28;20216;-81
2023/03/21 22:09:06;;;;;;;4.88;4.45;;;;;;;;;;10331727;28;20773;-80
2023/03/21 22:14:07;;;;;;;4.85;4.45;;;;;;;;;;10331094;28;20243;-79
2023/03/21 22:19:08;;;;;;;4.57;4.20;;;;;;;;;;10317033;28;20224;-82
2023/03/21 22:24:09;;;;;;;4.35;4.00;;;;;;;;;;10337997;28;20604;-79
2023/03/21 22:29:10;;;;;;;4.82;4.50;;;;;;;;;;10370405;28;20234;-82
2023/03/21 22:34:11;;;;;;;5.03;4.28;;;;;;;;;;10360186;28;20235;-82
2023/03/21 22:39:12;;;;;;;5.63;5.13;;;;;;;;;;10345092;28;20208;-80
2023/03/21 22:44:13;;;;;;;4.93;4.63;;;;;;;;;;10318565;28;20668;-79
2023/03/21 22:49:15;;;;;;;4.82;4.18;;;;;;;;;;10335228;28;20347;-79
2023/03/21 22:54:16;;;;;;;5.05;4.65;;;;;;;;;;10326013;28;20228;-79
2023/03/21 22:59:17;;;;;;;4.72;3.72;;;;;;;;;;10314124;28;20248;-81
2023/03/21 23:04:18;;;;;;;4.15;3.80;;;;;;;;;;10299528;28;20349;-79
2023/03/21 23:09:19;;;;;;;4.45;4.05;;;;;;;;;;10290191;28;20801;-78
2023/03/21 23:14:21;;;;;;;3.80;3.50;;;;;;;;;;10317824;28;20683;-79
2023/03/21 23:19:26;;;;;;;3.85;3.63;;;;;;;;;;10313147;28;20318;-80
2023/03/21 23:24:27;;;;;;;6.93;3.20;;;;;;;;;;10327296;28;20228;-80
2023/03/21 23:29:28;;;;;;;3.28;3.08;;;;;;;;;;10323045;28;20215;-80
2023/03/21 23:34:30;;;;;;;3.28;3.10;;;;;;;;;;10317652;28;20263;-81
2023/03/21 23:39:32;;;;;;;3.67;3.50;;;;;;;;;;10306872;28;20223;-80
2023/03/21 23:44:33;;;;;;;3.13;3.03;;;;;;;;;;10319269;28;20234;-80
2023/03/21 23:49:37;;;;;;;3.72;3.40;;;;;;;;;;10333453;28;20224;-79
2023/03/21 23:54:39;;;;;;;3.63;3.42;;;;;;;;;;10315063;28;20216;-78
2023/03/21 23:59:39;;;;;;;3.20;3.03;;;;;;;;;;10311825;28;20228;-79
